createdAt,value
2018-08-09T00:00:46.501Z,82.45
2018-08-09T00:01:46.525Z,82.73
2018-08-09T00:02:46.553Z,82.64
2018-08-09T00:03:46.578Z,82.64
2018-08-09T00:04:46.604Z,82.73
2018-08-09T00:05:46.628Z,82.73
2018-08-09T00:06:46.660Z,82.54
2018-08-09T00:07:46.692Z,83.22
2018-08-09T00:08:46.718Z,82.54
2018-08-09T00:09:46.733Z,82.64
2018-08-09T00:10:46.759Z,83.31
2018-08-09T00:11:46.797Z,83.22
2018-08-09T00:12:46.810Z,83.12
2018-08-09T00:13:46.836Z,83.31
2018-08-09T00:14:46.862Z,83.22
2018-08-09T00:15:46.900Z,83.22
2018-08-09T00:16:46.914Z,83.03
2018-08-09T00:17:46.940Z,83.31
2018-08-09T00:18:46.967Z,83.12
2018-08-09T00:19:46.993Z,83.22
2018-08-09T00:20:47.018Z,82.89
2018-08-09T00:21:47.044Z,83.08
2018-08-09T00:22:47.070Z,83.47
2018-08-09T00:23:47.140Z,83.37
2018-08-09T00:24:47.123Z,83.41
2018-08-09T00:25:47.146Z,83.18
2018-08-09T00:26:47.173Z,83.56
2018-08-09T00:27:47.200Z,83.75
2018-08-09T00:28:47.225Z,83.66
2018-08-09T00:29:47.250Z,83.56
2018-08-09T00:30:47.279Z,83.47
2018-08-09T00:31:47.303Z,83.75
2018-08-09T00:32:47.330Z,83.75
2018-08-09T00:33:47.355Z,83.66
2018-08-09T00:34:47.385Z,83.37
2018-08-09T00:35:47.406Z,83.95
2018-08-09T00:36:47.433Z,83.95
2018-08-09T00:37:47.459Z,84.53
2018-08-09T00:38:47.485Z,84.53
2018-08-09T00:39:47.510Z,84.43
2018-08-09T00:40:47.537Z,84.05
2018-08-09T00:41:47.561Z,84.14
2018-08-09T00:42:47.589Z,83.85
2018-08-09T00:43:47.614Z,84.10
2018-08-09T00:44:47.641Z,84.58
2018-08-09T00:45:47.667Z,84.53
2018-08-09T00:46:47.692Z,84.58
2018-08-09T00:47:47.718Z,84.39
2018-08-09T00:48:47.745Z,84.39
2018-08-09T00:49:47.774Z,84.58
2018-08-09T00:50:47.795Z,84.10
2018-08-09T00:51:47.822Z,84.68
2018-08-09T00:52:47.847Z,84.39
2018-08-09T00:53:47.874Z,84.30
2018-08-09T00:54:47.900Z,84.30
2018-08-09T00:55:47.925Z,84.10
2018-08-09T00:56:47.954Z,84.10
2018-08-09T00:57:47.977Z,84.30
2018-08-09T00:58:48.003Z,84.10
2018-08-09T00:59:48.029Z,84.20
2018-08-09T01:00:48.055Z,84.39
2018-08-09T01:01:48.081Z,84.20
2018-08-09T01:02:48.108Z,84.20
2018-08-09T01:03:48.134Z,84.20
2018-08-09T01:04:48.146Z,84.10
2018-08-09T01:05:48.172Z,84.48
2018-08-09T01:06:48.211Z,84.10
2018-08-09T01:07:48.224Z,84.20
2018-08-09T01:08:48.249Z,84.10
2018-08-09T01:09:48.277Z,84.10
2018-08-09T01:10:48.301Z,84.00
2018-08-09T01:11:48.328Z,84.00
2018-08-09T01:12:48.354Z,84.39
2018-08-09T01:13:48.380Z,84.39
2018-08-09T01:14:48.406Z,84.10
2018-08-09T01:15:48.432Z,84.30
2018-08-09T01:16:48.457Z,84.20
2018-08-09T01:17:48.483Z,84.48
2018-08-09T01:18:48.509Z,84.00
2018-08-09T01:19:48.535Z,83.81
2018-08-09T01:20:48.561Z,84.00
2018-08-09T01:21:48.599Z,83.81
2018-08-09T01:22:48.612Z,84.00
2018-08-09T01:23:48.640Z,84.00
2018-08-09T01:24:48.670Z,83.62
2018-08-09T01:25:48.691Z,83.52
2018-08-09T01:26:48.716Z,83.62
2018-08-09T01:27:48.742Z,83.42
2018-08-09T01:28:48.756Z,83.62
2018-08-09T01:29:48.785Z,83.14
2018-08-09T01:30:48.809Z,83.42
2018-08-09T01:31:48.835Z,83.42
2018-08-09T01:32:48.865Z,83.52
2018-08-09T01:33:48.887Z,83.72
2018-08-09T01:34:48.913Z,83.75
2018-08-09T01:35:48.939Z,83.33
2018-08-09T01:36:48.964Z,83.47
2018-08-09T01:37:48.990Z,83.27
2018-08-09T01:38:49.016Z,83.47
2018-08-09T01:39:49.042Z,83.47
2018-08-09T01:40:49.067Z,83.75
2018-08-09T01:41:49.094Z,83.75
2018-08-09T01:42:49.121Z,83.75
2018-08-09T01:43:49.145Z,83.66
2018-08-09T01:44:49.174Z,83.56
2018-08-09T01:45:49.197Z,84.24
2018-08-09T01:46:49.223Z,84.53
2018-08-09T01:47:49.271Z,85.21
2018-08-09T01:48:49.275Z,85.78
2018-08-09T01:49:49.302Z,85.98
2018-08-09T01:50:49.327Z,85.69
2018-08-09T01:51:49.352Z,85.49
2018-08-09T01:52:49.379Z,85.88
2018-08-09T01:53:49.395Z,85.49
2018-08-09T01:54:49.418Z,85.88
2018-08-09T01:55:49.444Z,85.88
2018-08-09T01:56:49.469Z,85.98
2018-08-09T01:57:49.495Z,86.17
2018-08-09T01:58:49.534Z,85.88
2018-08-09T01:59:49.546Z,86.17
2018-08-09T02:00:49.573Z,87.33
2018-08-09T02:01:49.598Z,86.94
2018-08-09T02:02:49.625Z,86.85
2018-08-09T02:03:49.651Z,87.62
2018-08-09T02:04:49.747Z,87.81
2018-08-09T02:05:49.704Z,87.62
2018-08-09T02:06:49.729Z,87.91
2018-08-09T02:07:49.755Z,88.78
2018-08-09T02:08:49.780Z,88.49
2018-08-09T02:09:49.806Z,88.49
2018-08-09T02:10:49.832Z,88.49
2018-08-09T02:11:49.860Z,88.49
2018-08-09T02:12:49.884Z,88.39
2018-08-09T02:13:49.923Z,88.68
2018-08-09T02:14:49.939Z,88.29
2018-08-09T02:15:49.962Z,88.59
2018-08-09T02:16:49.988Z,89.26
2018-08-09T02:17:50.014Z,88.78
2018-08-09T02:18:50.040Z,89.07
2018-08-09T02:19:50.068Z,89.26
2018-08-09T02:20:50.081Z,89.55
2018-08-09T02:21:50.117Z,89.17
2018-08-09T02:22:50.132Z,89.07
2018-08-09T02:23:50.162Z,88.97
2018-08-09T02:24:50.189Z,89.45
2018-08-09T02:25:50.211Z,89.51
2018-08-09T02:26:50.240Z,89.55
2018-08-09T02:27:50.262Z,89.94
2018-08-09T02:28:50.295Z,90.33
2018-08-09T02:29:50.314Z,89.79
2018-08-09T02:30:50.341Z,89.89
2018-08-09T02:31:50.374Z,89.99
2018-08-09T02:32:50.392Z,89.99
2018-08-09T02:33:50.418Z,90.09
2018-08-09T02:34:50.444Z,90.57
2018-08-09T02:35:50.470Z,90.47
2018-08-09T02:36:50.495Z,90.47
2018-08-09T02:37:50.521Z,90.37
2018-08-09T02:38:50.564Z,90.19
2018-08-09T02:39:50.574Z,90.47
2018-08-09T02:40:50.599Z,90.57
2018-08-09T02:41:50.612Z,90.86
2018-08-09T02:42:50.638Z,90.37
2018-08-09T02:43:50.663Z,90.86
2018-08-09T02:44:50.693Z,91.15
2018-08-09T02:45:50.720Z,90.86
2018-08-09T02:46:50.791Z,91.05
2018-08-09T02:47:50.767Z,90.95
2018-08-09T02:48:50.794Z,91.15
2018-08-09T02:49:50.833Z,91.15
2018-08-09T02:50:50.853Z,91.15
2018-08-09T02:51:50.871Z,91.15
2018-08-09T02:52:50.898Z,90.67
2018-08-09T02:53:50.924Z,90.67
2018-08-09T02:54:50.948Z,91.25
2018-08-09T02:55:50.975Z,90.95
2018-08-09T02:56:51.001Z,90.67
2018-08-09T02:57:51.027Z,90.53
2018-08-09T02:58:51.041Z,91.30
2018-08-09T02:59:51.068Z,91.15
2018-08-09T03:00:51.093Z,91.11
2018-08-09T03:01:51.119Z,91.35
2018-08-09T03:02:51.148Z,91.30
2018-08-09T03:03:51.170Z,91.68
2018-08-09T03:04:51.197Z,92.07
2018-08-09T03:05:51.223Z,91.88
2018-08-09T03:06:51.248Z,91.88
2018-08-09T03:07:51.277Z,91.88
2018-08-09T03:08:51.300Z,91.68
2018-08-09T03:09:51.331Z,91.97
2018-08-09T03:10:51.353Z,92.26
2018-08-09T03:11:51.379Z,91.88
2018-08-09T03:12:51.393Z,91.97
2018-08-09T03:13:51.417Z,92.46
2018-08-09T03:14:51.442Z,92.65
2018-08-09T03:15:51.468Z,92.65
2018-08-09T03:16:51.494Z,92.55
2018-08-09T03:17:51.521Z,92.46
2018-08-09T03:18:51.547Z,92.36
2018-08-09T03:19:51.572Z,92.46
2018-08-09T03:20:51.611Z,92.74
2018-08-09T03:21:51.628Z,92.46
2018-08-09T03:22:51.655Z,92.36
2018-08-09T03:23:51.676Z,92.65
2018-08-09T03:24:51.701Z,92.36
2018-08-09T03:25:51.730Z,92.36
2018-08-09T03:26:51.772Z,92.84
2018-08-09T03:27:51.779Z,93.13
2018-08-09T03:28:51.794Z,93.32
2018-08-09T03:29:51.819Z,93.28
2018-08-09T03:30:51.846Z,93.47
2018-08-09T03:31:51.872Z,93.52
2018-08-09T03:32:51.897Z,93.28
2018-08-09T03:33:51.922Z,92.99
2018-08-09T03:34:51.949Z,93.13
2018-08-09T03:35:51.975Z,93.28
2018-08-09T03:36:52.001Z,93.76
2018-08-09T03:37:52.027Z,93.52
2018-08-09T03:38:52.052Z,93.08
2018-08-09T03:39:52.079Z,93.90
2018-08-09T03:40:52.092Z,93.76
2018-08-09T03:41:52.118Z,93.66
2018-08-09T03:42:52.156Z,93.57
2018-08-09T03:43:52.169Z,93.18
2018-08-09T03:44:52.197Z,93.57
2018-08-09T03:45:52.221Z,93.28
2018-08-09T03:46:52.246Z,93.66
2018-08-09T03:47:52.272Z,93.95
2018-08-09T03:48:52.298Z,93.76
2018-08-09T03:49:52.338Z,93.76
2018-08-09T03:50:52.351Z,94.05
2018-08-09T03:51:52.377Z,94.05
2018-08-09T03:52:52.393Z,93.95
2018-08-09T03:53:52.417Z,94.15
2018-08-09T03:54:52.443Z,93.95
2018-08-09T03:55:52.473Z,93.95
2018-08-09T03:56:52.495Z,93.85
2018-08-09T03:57:52.521Z,93.85
2018-08-09T03:58:52.547Z,93.95
2018-08-09T03:59:52.573Z,94.05
2018-08-09T04:00:52.598Z,93.85
2018-08-09T04:01:52.632Z,93.95
2018-08-09T04:02:52.650Z,94.15
2018-08-09T04:03:52.676Z,93.95
2018-08-09T04:04:52.689Z,93.95
2018-08-09T04:05:52.715Z,94.24
2018-08-09T04:06:52.741Z,93.76
2018-08-09T04:07:52.767Z,94.43
2018-08-09T04:08:52.792Z,93.95
2018-08-09T04:09:52.833Z,94.05
2018-08-09T04:10:52.845Z,93.85
2018-08-09T04:11:52.877Z,94.24
2018-08-09T04:12:52.897Z,94.43
2018-08-09T04:13:52.923Z,94.53
2018-08-09T04:14:53.188Z,94.43
2018-08-09T04:15:52.963Z,94.24
2018-08-09T04:16:52.992Z,94.63
2018-08-09T04:17:53.055Z,94.43
2018-08-09T04:18:53.040Z,93.85
2018-08-09T04:19:53.069Z,93.95
2018-08-09T04:20:53.092Z,93.95
2018-08-09T04:21:53.118Z,94.34
2018-08-09T04:22:53.145Z,93.95
2018-08-09T04:23:53.169Z,94.53
2018-08-09T04:24:53.184Z,94.34
2018-08-09T04:25:53.212Z,94.15
2018-08-09T04:26:53.235Z,93.95
2018-08-09T04:27:53.261Z,94.05
2018-08-09T04:28:53.287Z,94.15
2018-08-09T04:29:53.312Z,94.05
2018-08-09T04:30:53.338Z,94.15
2018-08-09T04:31:53.364Z,93.95
2018-08-09T04:32:53.390Z,93.76
2018-08-09T04:33:53.416Z,93.95
2018-08-09T04:34:53.442Z,94.34
2018-08-09T04:35:53.468Z,93.95
2018-08-09T04:36:53.482Z,93.85
2018-08-09T04:37:53.512Z,93.95
2018-08-09T04:38:53.537Z,93.76
2018-08-09T04:39:53.560Z,93.76
2018-08-09T04:40:53.586Z,94.05
2018-08-09T04:41:53.612Z,94.05
2018-08-09T04:42:53.638Z,93.95
2018-08-09T04:43:53.664Z,94.15
2018-08-09T04:44:53.690Z,93.95
2018-08-09T04:45:53.715Z,93.57
2018-08-09T04:46:53.741Z,93.66
2018-08-09T04:47:53.768Z,93.66
2018-08-09T04:48:53.785Z,93.76
2018-08-09T04:49:53.807Z,93.28
2018-08-09T04:50:53.833Z,92.89
2018-08-09T04:51:53.858Z,92.99
2018-08-09T04:52:53.898Z,92.80
2018-08-09T04:53:53.910Z,92.80
2018-08-09T04:54:53.936Z,92.60
2018-08-09T04:55:53.961Z,92.55
2018-08-09T04:56:53.988Z,91.88
2018-08-09T04:57:54.013Z,91.93
2018-08-09T04:58:54.064Z,91.93
2018-08-09T04:59:54.067Z,92.02
2018-08-09T05:00:54.091Z,92.02
2018-08-09T05:01:54.119Z,91.78
2018-08-09T05:02:54.143Z,91.44
2018-08-09T05:03:54.158Z,91.20
2018-08-09T05:04:54.187Z,91.20
2018-08-09T05:05:54.211Z,91.39
2018-08-09T05:06:54.236Z,91.30
2018-08-09T05:07:54.262Z,90.72
2018-08-09T05:08:54.288Z,90.81
2018-08-09T05:09:54.313Z,90.81
2018-08-09T05:10:54.340Z,90.91
2018-08-09T05:11:54.366Z,90.62
2018-08-09T05:12:54.391Z,90.72
2018-08-09T05:13:54.419Z,90.91
2018-08-09T05:14:54.443Z,90.72
2018-08-09T05:15:54.503Z,91.01
2018-08-09T05:16:54.495Z,90.91
2018-08-09T05:17:54.514Z,90.62
2018-08-09T05:18:54.534Z,91.11
2018-08-09T05:19:54.561Z,90.33
2018-08-09T05:20:54.586Z,90.23
2018-08-09T05:21:54.612Z,90.62
2018-08-09T05:22:54.638Z,90.33
2018-08-09T05:23:54.664Z,89.95
2018-08-09T05:24:54.691Z,89.75
2018-08-09T05:25:54.716Z,90.14
2018-08-09T05:26:54.741Z,89.95
2018-08-09T05:27:54.767Z,89.95
2018-08-09T05:28:54.806Z,89.56
2018-08-09T05:29:54.820Z,89.85
2018-08-09T05:30:54.845Z,90.14
2018-08-09T05:31:54.871Z,89.95
2018-08-09T05:32:54.897Z,90.05
2018-08-09T05:33:54.923Z,89.85
2018-08-09T05:34:54.949Z,89.85
2018-08-09T05:35:54.964Z,90.05
2018-08-09T05:36:54.995Z,89.95
2018-08-09T05:37:55.015Z,89.75
2018-08-09T05:38:55.045Z,90.05
2018-08-09T05:39:55.067Z,89.27
2018-08-09T05:40:55.093Z,88.79
2018-08-09T05:41:55.118Z,88.69
2018-08-09T05:42:55.145Z,88.25
2018-08-09T05:43:55.171Z,89.03
2018-08-09T05:44:55.196Z,88.83
2018-08-09T05:45:55.264Z,89.22
2018-08-09T05:46:55.249Z,89.03
2018-08-09T05:47:55.274Z,88.25
2018-08-09T05:48:55.300Z,88.45
2018-08-09T05:49:55.326Z,88.06
2018-08-09T05:50:55.352Z,87.77
2018-08-09T05:51:55.381Z,87.87
2018-08-09T05:52:55.495Z,87.96
2018-08-09T05:53:55.430Z,87.96
2018-08-09T05:54:55.456Z,87.96
2018-08-09T05:55:55.481Z,87.87
2018-08-09T05:56:55.508Z,87.96
2018-08-09T05:57:55.534Z,87.87
2018-08-09T05:58:55.560Z,88.45
2018-08-09T05:59:55.586Z,88.10
2018-08-09T06:00:55.611Z,87.81
2018-08-09T06:01:55.639Z,87.81
2018-08-09T06:02:55.664Z,88.68
2018-08-09T06:03:55.691Z,88.10
2018-08-09T06:04:55.715Z,88.49
2018-08-09T06:05:55.741Z,88.39
2018-08-09T06:06:55.768Z,88.68
2018-08-09T06:07:55.796Z,87.62
2018-08-09T06:08:55.820Z,87.23
2018-08-09T06:09:55.845Z,87.71
2018-08-09T06:10:55.870Z,88.01
2018-08-09T06:11:55.897Z,87.81
2018-08-09T06:12:55.923Z,87.91
2018-08-09T06:13:55.950Z,87.81
2018-08-09T06:14:55.974Z,87.33
2018-08-09T06:15:56.000Z,87.47
2018-08-09T06:16:56.026Z,87.85
2018-08-09T06:17:56.053Z,87.66
2018-08-09T06:18:56.085Z,88.15
2018-08-09T06:19:56.104Z,88.05
2018-08-09T06:20:56.130Z,86.51
2018-08-09T06:21:56.157Z,86.99
2018-08-09T06:22:56.182Z,86.89
2018-08-09T06:23:56.208Z,86.79
2018-08-09T06:24:56.234Z,86.89
2018-08-09T06:25:56.260Z,86.11
2018-08-09T06:26:56.286Z,86.51
2018-08-09T06:27:56.312Z,86.21
2018-08-09T06:28:56.337Z,86.60
2018-08-09T06:29:56.369Z,86.45
2018-08-09T06:30:56.390Z,86.83
2018-08-09T06:31:56.416Z,85.97
2018-08-09T06:32:56.441Z,85.97
2018-08-09T06:33:56.467Z,85.52
2018-08-09T06:34:56.494Z,85.42
2018-08-09T06:35:56.519Z,85.33
2018-08-09T06:36:56.559Z,84.11
2018-08-09T06:37:56.583Z,84.69
2018-08-09T06:38:56.638Z,83.28
2018-08-09T06:39:56.634Z,82.41
2018-08-09T06:40:56.661Z,82.70
2018-08-09T06:41:56.686Z,82.65
2018-08-09T06:42:56.712Z,81.97
2018-08-09T06:43:56.751Z,80.42
2018-08-09T06:44:56.777Z,80.65
2018-08-09T06:45:56.812Z,80.07
2018-08-09T06:46:56.829Z,80.07
2018-08-09T06:47:56.858Z,80.01
2018-08-09T06:48:56.892Z,79.24
2018-08-09T06:49:56.919Z,78.69
2018-08-09T06:50:56.946Z,78.79
2018-08-09T06:51:56.970Z,78.02
2018-08-09T06:52:57.010Z,78.44
2018-08-09T06:53:57.036Z,77.57
2018-08-09T06:54:57.061Z,77.86
2018-08-09T06:55:57.088Z,77.80
2018-08-09T06:56:57.142Z,76.83
2018-08-09T06:57:57.151Z,76.97
2018-08-09T06:58:57.183Z,76.48
2018-08-09T06:59:57.217Z,76.77
2018-08-09T07:00:57.243Z,77.25
2018-08-09T07:01:57.268Z,76.42
2018-08-09T07:02:57.305Z,74.96
2018-08-09T07:03:57.332Z,75.35
2018-08-09T07:04:57.358Z,75.38
2018-08-09T07:05:57.396Z,74.80
2018-08-09T07:06:57.447Z,74.61
2018-08-09T07:07:57.448Z,74.61
2018-08-09T07:08:57.486Z,74.41
2018-08-09T07:09:57.512Z,73.47
2018-08-09T07:10:57.556Z,73.47
2018-08-09T07:11:57.578Z,72.99
2018-08-09T07:12:57.608Z,72.44
2018-08-09T07:13:57.641Z,72.34
2018-08-09T07:14:57.668Z,72.83
2018-08-09T07:15:57.706Z,72.67
2018-08-09T07:16:57.731Z,72.67
2018-08-09T07:17:57.766Z,72.28
2018-08-09T07:18:57.795Z,72.28
2018-08-09T07:19:57.823Z,72.31
2018-08-09T07:20:57.861Z,72.51
2018-08-09T07:21:57.887Z,70.66
2018-08-09T07:22:57.925Z,71.18
2018-08-09T07:23:57.950Z,71.37
2018-08-09T07:24:57.989Z,71.34
2018-08-09T07:25:58.016Z,70.50
2018-08-09T07:26:58.055Z,69.62
2018-08-09T07:27:58.079Z,70.01
2018-08-09T07:28:58.118Z,71.18
2018-08-09T07:29:58.144Z,71.77
2018-08-09T07:30:58.182Z,71.96
2018-08-09T07:31:58.208Z,71.12
2018-08-09T07:32:58.247Z,70.53
2018-08-09T07:33:58.274Z,69.85
2018-08-09T07:34:58.312Z,69.75
2018-08-09T07:35:58.349Z,68.97
2018-08-09T07:36:58.376Z,69.30
2018-08-09T07:37:58.415Z,69.79
2018-08-09T07:38:58.440Z,69.98
2018-08-09T07:39:58.478Z,70.08
2018-08-09T07:40:58.505Z,69.30
2018-08-09T07:41:58.549Z,67.93
2018-08-09T07:42:58.581Z,67.58
2018-08-09T07:43:58.607Z,68.46
2018-08-09T07:44:58.647Z,67.58
2018-08-09T07:45:58.670Z,68.36
2018-08-09T07:46:58.710Z,68.85
2018-08-09T07:47:58.761Z,69.04
2018-08-09T07:48:58.773Z,68.46
2018-08-09T07:49:58.815Z,66.80
2018-08-09T07:50:58.850Z,67.29
2018-08-09T07:51:58.876Z,67.87
2018-08-09T07:52:58.915Z,69.53
2018-08-09T07:53:58.941Z,67.58
2018-08-09T07:54:58.993Z,68.46
2018-08-09T07:55:59.054Z,68.46
2018-08-09T07:56:59.115Z,68.26
2018-08-09T07:57:59.082Z,68.16
2018-08-09T07:58:59.121Z,68.55
2018-08-09T07:59:59.147Z,68.46
2018-08-09T08:00:59.237Z,67.58
2018-08-09T08:01:59.225Z,67.77
2018-08-09T08:02:59.250Z,67.97
2018-08-09T08:03:59.288Z,67.48
2018-08-09T08:04:59.327Z,67.68
2018-08-09T08:05:59.363Z,68.16
2018-08-09T08:06:59.390Z,69.34
2018-08-09T08:07:59.429Z,69.14
2018-08-09T08:08:59.456Z,67.68
2018-08-09T08:09:59.493Z,67.97
2018-08-09T08:10:59.532Z,67.29
2018-08-09T08:11:59.607Z,66.99
2018-08-09T08:12:59.596Z,66.99
2018-08-09T08:13:59.636Z,67.38
2018-08-09T08:14:59.739Z,67.38
2018-08-09T08:15:59.725Z,66.99
2018-08-09T08:16:59.738Z,68.26
2018-08-09T08:17:59.775Z,68.19
2018-08-09T08:18:59.816Z,68.00
2018-08-09T08:19:59.841Z,67.61
2018-08-09T08:20:59.883Z,68.19
2018-08-09T08:21:59.918Z,67.41
2018-08-09T08:22:59.955Z,67.41
2018-08-09T08:23:59.988Z,67.12
2018-08-09T08:25:00.021Z,67.51
2018-08-09T08:26:00.060Z,68.68
2018-08-09T08:27:00.084Z,67.77
2018-08-09T08:28:00.124Z,67.68
2018-08-09T08:29:00.150Z,68.07
2018-08-09T08:30:00.188Z,68.95
2018-08-09T08:31:00.225Z,68.95
2018-08-09T08:32:00.254Z,68.46
2018-08-09T08:33:00.289Z,69.01
2018-08-09T08:34:00.319Z,68.91
2018-08-09T08:35:00.357Z,71.15
2018-08-09T08:36:00.394Z,70.86
2018-08-09T08:37:00.422Z,71.06
2018-08-09T08:38:00.457Z,69.65
2018-08-09T08:39:00.483Z,69.36
2018-08-09T08:40:00.521Z,69.85
2018-08-09T08:41:00.562Z,70.83
2018-08-09T08:42:00.587Z,71.41
2018-08-09T08:43:00.612Z,71.12
2018-08-09T08:44:00.650Z,71.12
2018-08-09T08:45:00.675Z,71.31
2018-08-09T08:46:00.714Z,71.61
2018-08-09T08:47:00.747Z,71.51
2018-08-09T08:48:00.779Z,71.80
2018-08-09T08:49:00.818Z,71.90
2018-08-09T08:50:00.844Z,71.12
2018-08-09T08:51:00.869Z,70.92
2018-08-09T08:52:00.908Z,70.92
2018-08-09T08:53:00.934Z,70.83
2018-08-09T08:54:00.980Z,72.16
2018-08-09T08:55:01.011Z,72.74
2018-08-09T08:56:01.050Z,72.84
2018-08-09T08:57:01.066Z,72.94
2018-08-09T08:58:01.088Z,73.66
2018-08-09T08:59:01.170Z,73.91
2018-08-09T09:00:01.154Z,74.30
2018-08-09T09:01:01.196Z,73.91
2018-08-09T09:02:01.216Z,73.13
2018-08-09T09:03:01.256Z,73.52
2018-08-09T09:04:01.284Z,74.79
2018-08-09T09:05:01.315Z,75.57
2018-08-09T09:06:01.347Z,73.82
2018-08-09T09:07:01.385Z,73.19
2018-08-09T09:08:01.410Z,74.11
2018-08-09T09:09:01.436Z,75.24
2018-08-09T09:10:01.461Z,75.14
2018-08-09T09:11:01.500Z,75.34
2018-08-09T09:12:01.526Z,75.82
2018-08-09T09:13:01.553Z,75.04
2018-08-09T09:14:01.590Z,75.14
2018-08-09T09:15:01.617Z,75.34
2018-08-09T09:16:01.655Z,74.37
2018-08-09T09:17:01.693Z,73.97
2018-08-09T09:18:01.706Z,74.76
2018-08-09T09:19:01.746Z,74.37
2018-08-09T09:20:01.772Z,75.04
2018-08-09T09:21:01.797Z,74.56
2018-08-09T09:22:01.835Z,74.95
2018-08-09T09:23:01.861Z,74.85
2018-08-09T09:24:01.899Z,75.63
2018-08-09T09:25:01.927Z,75.43
2018-08-09T09:26:01.952Z,75.14
2018-08-09T09:27:02.053Z,75.34
2018-08-09T09:28:02.018Z,75.24
2018-08-09T09:29:02.043Z,75.82
2018-08-09T09:30:02.080Z,75.14
2018-08-09T09:31:02.110Z,74.50
2018-08-09T09:32:02.132Z,74.40
2018-08-09T09:33:02.169Z,75.18
2018-08-09T09:34:02.195Z,74.69
2018-08-09T09:35:02.279Z,74.11
2018-08-09T09:36:02.264Z,74.21
2018-08-09T09:37:02.287Z,74.21
2018-08-09T09:38:02.323Z,73.52
2018-08-09T09:39:02.352Z,73.52
2018-08-09T09:40:02.375Z,74.01
2018-08-09T09:41:02.417Z,75.57
2018-08-09T09:42:02.441Z,75.47
2018-08-09T09:43:02.466Z,75.18
2018-08-09T09:44:02.504Z,74.98
2018-08-09T09:45:02.531Z,73.56
2018-08-09T09:46:02.570Z,75.51
2018-08-09T09:47:02.597Z,74.24
2018-08-09T09:48:02.624Z,74.63
2018-08-09T09:49:02.661Z,76.09
2018-08-09T09:50:02.685Z,77.17
2018-08-09T09:51:02.711Z,74.73
2018-08-09T09:52:02.754Z,73.56
2018-08-09T09:53:02.776Z,73.36
2018-08-09T09:54:02.801Z,72.58
2018-08-09T09:55:02.871Z,72.29
2018-08-09T09:56:02.876Z,72.72
2018-08-09T09:57:02.893Z,73.85
2018-08-09T09:58:02.929Z,73.30
2018-08-09T09:59:02.956Z,74.18
2018-08-09T10:00:02.996Z,72.23
2018-08-09T10:01:03.020Z,72.97
2018-08-09T10:02:03.085Z,73.40
2018-08-09T10:03:03.085Z,73.89
2018-08-09T10:04:03.122Z,73.69
2018-08-09T10:05:03.153Z,73.01
2018-08-09T10:06:03.176Z,73.83
2018-08-09T10:07:03.240Z,72.75
2018-08-09T10:08:03.251Z,72.27
2018-08-09T10:09:03.289Z,71.88
2018-08-09T10:10:03.316Z,71.51
2018-08-09T10:11:03.341Z,70.64
2018-08-09T10:12:03.379Z,70.15
2018-08-09T10:13:03.422Z,69.95
2018-08-09T10:14:03.444Z,70.09
2018-08-09T10:15:03.483Z,70.28
2018-08-09T10:16:03.522Z,71.20
2018-08-09T10:17:03.547Z,72.27
2018-08-09T10:18:03.585Z,72.11
2018-08-09T10:19:03.626Z,70.64
2018-08-09T10:20:03.652Z,69.67
2018-08-09T10:21:03.688Z,69.31
2018-08-09T10:22:03.728Z,68.91
2018-08-09T10:23:03.752Z,68.55
2018-08-09T10:24:03.791Z,66.99
2018-08-09T10:25:03.830Z,67.58
2018-08-09T10:26:03.870Z,67.87
2018-08-09T10:27:03.906Z,67.32
2018-08-09T10:28:03.944Z,66.76
2018-08-09T10:29:03.970Z,66.11
2018-08-09T10:30:04.010Z,65.72
2018-08-09T10:31:04.047Z,65.55
2018-08-09T10:32:04.086Z,64.31
2018-08-09T10:33:04.124Z,63.71
2018-08-09T10:34:04.165Z,65.52
2018-08-09T10:35:04.201Z,65.61
2018-08-09T10:36:04.241Z,64.96
2018-08-09T10:37:04.278Z,64.40
2018-08-09T10:38:04.329Z,63.74
2018-08-09T10:39:04.367Z,63.18
2018-08-09T10:40:04.405Z,60.46
2018-08-09T10:41:04.444Z,58.98
2018-08-09T10:42:04.482Z,59.30
2018-08-09T10:43:04.531Z,57.46
2018-08-09T10:44:04.558Z,57.17
2018-08-09T10:45:04.623Z,57.59
2018-08-09T10:46:04.653Z,57.91
2018-08-09T10:47:04.687Z,56.04
2018-08-09T10:48:04.726Z,56.16
2018-08-09T10:49:04.768Z,56.16
2018-08-09T10:50:04.815Z,55.18
2018-08-09T10:51:04.854Z,55.20
2018-08-09T10:52:04.891Z,55.20
2018-08-09T10:53:04.933Z,54.61
2018-08-09T10:54:04.981Z,54.73
2018-08-09T10:55:05.020Z,55.26
2018-08-09T10:56:05.059Z,53.97
2018-08-09T10:57:05.097Z,54.56
2018-08-09T10:58:05.149Z,55.45
2018-08-09T10:59:05.185Z,55.68
2018-08-09T11:00:05.224Z,54.29
2018-08-09T11:01:05.274Z,53.42
2018-08-09T11:02:05.314Z,51.35
2018-08-09T11:03:05.352Z,50.98
2018-08-09T11:04:05.391Z,51.28
2018-08-09T11:05:05.441Z,51.57
2018-08-09T11:06:05.479Z,52.49
2018-08-09T11:07:05.523Z,52.49
2018-08-09T11:08:05.569Z,53.20
2018-08-09T11:09:05.607Z,52.22
2018-08-09T11:10:05.647Z,50.85
2018-08-09T11:11:05.697Z,50.65
2018-08-09T11:12:05.735Z,49.76
2018-08-09T11:13:05.774Z,49.57
2018-08-09T11:14:05.812Z,49.99
2018-08-09T11:15:05.908Z,49.59
2018-08-09T11:16:05.908Z,49.81
2018-08-09T11:17:05.942Z,50.01
2018-08-09T11:18:05.990Z,49.14
2018-08-09T11:19:06.029Z,49.54
2018-08-09T11:20:06.081Z,49.46
2018-08-09T11:21:06.118Z,49.07
2018-08-09T11:22:06.157Z,48.57
2018-08-09T11:23:06.209Z,47.20
2018-08-09T11:24:06.248Z,46.53
2018-08-09T11:25:06.284Z,45.63
2018-08-09T11:26:06.336Z,46.23
2018-08-09T11:27:06.373Z,46.15
2018-08-09T11:28:06.428Z,45.55
2018-08-09T11:29:06.463Z,45.75
2018-08-09T11:30:06.501Z,45.65
2018-08-09T11:31:06.552Z,45.48
2018-08-09T11:32:06.591Z,46.08
2018-08-09T11:33:06.630Z,45.08
2018-08-09T11:34:06.714Z,45.00
2018-08-09T11:35:06.718Z,45.10
2018-08-09T11:36:06.769Z,44.70
2018-08-09T11:37:06.809Z,45.50
2018-08-09T11:38:06.858Z,45.60
2018-08-09T11:39:06.897Z,45.40
2018-08-09T11:40:06.935Z,45.00
2018-08-09T11:41:06.986Z,44.90
2018-08-09T11:42:07.025Z,44.40
2018-08-09T11:43:07.110Z,44.90
2018-08-09T11:44:07.114Z,45.60
2018-08-09T11:45:07.153Z,45.90
2018-08-09T11:46:07.204Z,44.53
2018-08-09T11:47:07.241Z,44.62
2018-08-09T11:48:07.293Z,44.42
2018-08-09T11:49:07.341Z,44.32
2018-08-09T11:50:07.370Z,44.24
2018-08-09T11:51:07.421Z,44.05
2018-08-09T11:52:07.471Z,44.45
2018-08-09T11:53:07.510Z,44.46
2018-08-09T11:54:07.548Z,43.67
2018-08-09T11:55:07.604Z,44.07
2018-08-09T11:56:07.663Z,44.17
2018-08-09T11:57:07.684Z,44.76
2018-08-09T11:58:07.727Z,44.07
2018-08-09T11:59:07.765Z,44.37
2018-08-09T12:00:07.816Z,45.06
2018-08-09T12:01:07.854Z,44.29
2018-08-09T12:02:07.905Z,43.49
2018-08-09T12:03:07.945Z,44.09
2018-08-09T12:04:07.984Z,44.38
2018-08-09T12:05:08.033Z,43.11
2018-08-09T12:06:08.076Z,43.49
2018-08-09T12:07:08.134Z,43.39
2018-08-09T12:08:08.161Z,42.81
2018-08-09T12:09:08.212Z,42.51
2018-08-09T12:10:08.251Z,42.54
2018-08-09T12:11:08.290Z,42.54
2018-08-09T12:12:08.354Z,42.76
2018-08-09T12:13:08.386Z,42.35
2018-08-09T12:14:08.431Z,42.25
2018-08-09T12:15:08.471Z,42.25
2018-08-09T12:16:08.518Z,42.76
2018-08-09T12:17:08.557Z,42.87
2018-08-09T12:18:08.608Z,42.38
2018-08-09T12:19:08.647Z,42.68
2018-08-09T12:20:08.710Z,42.29
2018-08-09T12:21:08.741Z,41.89
2018-08-09T12:22:08.787Z,41.39
2018-08-09T12:23:08.824Z,41.39
2018-08-09T12:24:08.889Z,41.52
2018-08-09T12:25:08.915Z,41.82
2018-08-09T12:26:08.965Z,41.91
2018-08-09T12:27:09.017Z,41.61
2018-08-09T12:28:09.053Z,41.63
2018-08-09T12:29:09.092Z,41.43
2018-08-09T12:30:09.144Z,41.33
2018-08-09T12:31:09.181Z,41.53
2018-08-09T12:32:09.232Z,41.63
2018-08-09T12:33:09.302Z,41.13
2018-08-09T12:34:09.323Z,40.52
2018-08-09T12:35:09.361Z,41.31
2018-08-09T12:36:09.413Z,41.30
2018-08-09T12:37:09.450Z,41.09
2018-08-09T12:38:09.501Z,41.39
2018-08-09T12:39:09.540Z,41.89
2018-08-09T12:40:09.590Z,41.39
2018-08-09T12:41:09.628Z,41.30
2018-08-09T12:42:09.667Z,41.49
2018-08-09T12:43:09.717Z,41.30
2018-08-09T12:44:09.763Z,41.19
2018-08-09T12:45:09.811Z,41.58
2018-08-09T12:46:09.845Z,42.07
2018-08-09T12:47:09.896Z,41.58
2018-08-09T12:48:09.935Z,40.97
2018-08-09T12:49:09.986Z,41.47
2018-08-09T12:50:10.024Z,41.27
2018-08-09T12:51:10.075Z,41.27
2018-08-09T12:52:10.114Z,41.97
2018-08-09T12:53:10.152Z,41.46